Stanley, Kansas
Current Conditions -  °F | °C
As of 3:54 PM on Saturday 25 Oct 2014 (Local Time) from KMKC Reporting Station
Clear Clear  
Wind Chill: 82°   Ceiling: Unl
Heat Index: 82°   Visibility: 10mi
Dew Point: 55°   Wind: 3mph
Humidity: 39%   Direction: NA
Pressure: 30.02"   Gusts: NA
Location:  39.0186°N, 94.6662°W
Report Text: KMKC 252054Z VRB03KT 10SM CLR 28/13 A3002 RMK AO2 SLP159 T02780128 56013
Loading
Personal Weather Stations






























Interactive Weather Map
Tropical Storm Tracking
New forecast layout! Learn more

10-Day Weather Forecast

Advertisements
Track Severe Weather on mobile